createdAt,value
2023-01-30T00:07:38.610Z,21.616
2023-01-30T00:22:46.467Z,21.494
2023-01-30T00:37:54.406Z,21.598
2023-01-30T00:52:56.466Z,21.498
2023-01-30T01:07:58.284Z,21.401
2023-01-30T01:23:00.138Z,20.35
2023-01-30T01:38:01.985Z,20.885
2023-01-30T01:53:03.925Z,21.133
2023-01-30T02:08:05.782Z,21.281
2023-01-30T02:23:07.635Z,21.441
2023-01-30T02:38:09.439Z,21.436
2023-01-30T02:53:11.270Z,21.534
2023-01-30T03:08:13.098Z,21.648
2023-01-30T03:23:14.909Z,21.781
2023-01-30T03:38:16.771Z,21.722
2023-01-30T03:53:18.663Z,21.706
2023-01-30T04:08:20.516Z,21.808
2023-01-30T04:23:22.380Z,20.717
2023-01-30T04:38:24.250Z,22.588
2023-01-30T04:53:26.113Z,22.275
2023-01-30T05:08:27.960Z,21.489
2023-01-30T05:23:29.793Z,20.896
2023-01-30T05:38:31.673Z,20.562
2023-01-30T05:53:33.557Z,22.513
2023-01-30T06:08:35.407Z,25.574
2023-01-30T06:23:37.288Z,25.719
2023-01-30T06:38:39.128Z,20.178
2023-01-30T06:53:41.087Z,21.168
2023-01-30T07:08:43.007Z,23.1
2023-01-30T07:23:44.904Z,20.581
2023-01-30T07:38:46.888Z,23.443
2023-01-30T07:53:48.909Z,20.94
2023-01-30T08:08:50.870Z,20.73
2023-01-30T08:23:52.788Z,20.643
2023-01-30T08:38:54.709Z,20.777
2023-01-30T08:53:56.605Z,20.76
2023-01-30T09:08:58.650Z,20.398
2023-01-30T09:24:00.600Z,19.856
2023-01-30T09:39:02.563Z,20.253
2023-01-30T09:54:04.459Z,21.548
2023-01-30T10:09:06.375Z,20.908
2023-01-30T10:24:08.321Z,21.314
2023-01-30T10:39:10.240Z,21.567
2023-01-30T10:54:12.144Z,22.281
2023-01-30T11:09:14.085Z,21.74
2023-01-30T11:24:16.010Z,21.97
2023-01-30T11:39:17.916Z,21.932
2023-01-30T11:54:19.854Z,22.451
2023-01-30T12:09:21.766Z,23.009
2023-01-30T12:24:23.703Z,22.632
2023-01-30T12:39:25.632Z,22.688
2023-01-30T12:54:27.531Z,22.248
2023-01-30T13:09:29.435Z,22.871
2023-01-30T13:24:31.358Z,22.963
2023-01-30T13:39:33.258Z,22.744
2023-01-30T13:54:35.181Z,22.399
2023-01-30T14:09:37.060Z,22.526
2023-01-30T14:24:38.951Z,23.197
2023-01-30T14:39:40.864Z,23.38
2023-01-30T14:54:42.830Z,23.776
2023-01-30T15:09:44.722Z,23.608
2023-01-30T15:24:46.677Z,24.013
2023-01-30T15:39:48.615Z,24.292
2023-01-30T15:54:50.518Z,23.479
2023-01-30T16:10:05.943Z,23.036
2023-01-30T16:25:09.077Z,22.907
2023-01-30T16:40:10.976Z,24.04
2023-01-30T16:55:12.892Z,22.395
2023-01-30T17:10:14.869Z,22.036
2023-01-30T17:25:16.815Z,22.036
2023-01-30T17:40:19.099Z,22.068
2023-01-30T17:55:21.923Z,21.89
2023-01-30T18:10:24.021Z,21.78
2023-01-30T18:25:25.955Z,21.799
2023-01-30T18:40:27.846Z,21.76
2023-01-30T18:55:29.927Z,20.965
2023-01-30T19:10:31.852Z,20.669
2023-01-30T19:25:33.750Z,21.057
2023-01-30T19:40:35.612Z,21.292
2023-01-30T19:55:37.539Z,20.524
2023-01-30T20:10:39.440Z,20.817
2023-01-30T20:25:41.328Z,21.204
2023-01-30T20:40:43.307Z,20.386
2023-01-30T20:55:45.284Z,21.271
2023-01-30T21:10:47.204Z,20.252
2023-01-30T21:25:49.112Z,20.63
2023-01-30T21:40:51.042Z,20.414
2023-01-30T21:55:52.977Z,20.371
2023-01-30T22:10:55.097Z,20.866
2023-01-30T22:25:57.397Z,20.843
2023-01-30T22:40:59.357Z,21.979
2023-01-30T22:56:01.318Z,21.663
2023-01-30T23:11:03.346Z,21.221
2023-01-30T23:26:05.261Z,21.116
2023-01-30T23:41:07.228Z,20.742
2023-01-30T23:56:09.143Z,21.238
